sensor_id;sensor_type;location;lat;lon;timestamp;temperature;humidity
15700;DHT22;7950;42.744;23.174;2022-09-25T00:02:01;7.10;99.90
15700;DHT22;7950;42.744;23.174;2022-09-25T00:04:30;7.00;99.90
15700;DHT22;7950;42.744;23.174;2022-09-25T00:06:58;7.00;99.90
15700;DHT22;7950;42.744;23.174;2022-09-25T00:09:27;7.00;99.90
15700;DHT22;7950;42.744;23.174;2022-09-25T00:11:55;7.00;99.90
15700;DHT22;7950;42.744;23.174;2022-09-25T00:14:23;7.00;99.90
15700;DHT22;7950;42.744;23.174;2022-09-25T00:16:53;6.90;99.90
15700;DHT22;7950;42.744;23.174;2022-09-25T00:19:21;6.90;99.90
15700;DHT22;7950;42.744;23.174;2022-09-25T00:22:07;6.80;99.90
15700;DHT22;7950;42.744;23.174;2022-09-25T00:25:00;6.80;99.90
15700;DHT22;7950;42.744;23.174;2022-09-25T00:27:29;6.70;99.90
15700;DHT22;7950;42.744;23.174;2022-09-25T00:29:58;6.70;99.90
15700;DHT22;7950;42.744;23.174;2022-09-25T00:32:28;6.70;99.90
15700;DHT22;7950;42.744;23.174;2022-09-25T00:34:56;6.60;99.90
15700;DHT22;7950;42.744;23.174;2022-09-25T00:37:25;6.60;99.90
15700;DHT22;7950;42.744;23.174;2022-09-25T00:39:54;6.60;99.90
15700;DHT22;7950;42.744;23.174;2022-09-25T00:42:23;6.60;99.90
15700;DHT22;7950;42.744;23.174;2022-09-25T00:44:54;6.60;99.90
15700;DHT22;7950;42.744;23.174;2022-09-25T00:47:40;6.60;99.90
15700;DHT22;7950;42.744;23.174;2022-09-25T00:50:37;6.50;99.90
15700;DHT22;7950;42.744;23.174;2022-09-25T00:53:08;6.50;99.90
15700;DHT22;7950;42.744;23.174;2022-09-25T00:55:39;6.40;99.90
15700;DHT22;7950;42.744;23.174;2022-09-25T00:58:17;6.50;99.90
15700;DHT22;7950;42.744;23.174;2022-09-25T01:00:46;6.40;99.90
15700;DHT22;7950;42.744;23.174;2022-09-25T01:03:22;6.40;99.90
15700;DHT22;7950;42.744;23.174;2022-09-25T01:06:17;6.30;99.90
15700;DHT22;7950;42.744;23.174;2022-09-25T01:08:45;6.30;99.90
15700;DHT22;7950;42.744;23.174;2022-09-25T01:11:15;6.30;99.90
15700;DHT22;7950;42.744;23.174;2022-09-25T01:13:43;6.30;99.90
15700;DHT22;7950;42.744;23.174;2022-09-25T01:16:16;6.30;99.90
15700;DHT22;7950;42.744;23.174;2022-09-25T01:18:59;6.30;99.90
15700;DHT22;7950;42.744;23.174;2022-09-25T01:21:36;6.30;99.90
15700;DHT22;7950;42.744;23.174;2022-09-25T01:24:40;6.30;99.90
15700;DHT22;7950;42.744;23.174;2022-09-25T01:27:41;6.20;99.90
15700;DHT22;7950;42.744;23.174;2022-09-25T01:30:14;6.20;99.90
15700;DHT22;7950;42.744;23.174;2022-09-25T01:32:54;6.20;99.90
15700;DHT22;7950;42.744;23.174;2022-09-25T01:35:32;6.20;99.90
15700;DHT22;7950;42.744;23.174;2022-09-25T01:38:10;6.30;99.90
15700;DHT22;7950;42.744;23.174;2022-09-25T01:40:46;6.20;99.90
15700;DHT22;7950;42.744;23.174;2022-09-25T01:43:21;6.20;99.90
15700;DHT22;7950;42.744;23.174;2022-09-25T01:45:54;6.10;99.90
15700;DHT22;7950;42.744;23.174;2022-09-25T01:48:44;6.10;99.90
15700;DHT22;7950;42.744;23.174;2022-09-25T01:51:15;6.10;99.90
15700;DHT22;7950;42.744;23.174;2022-09-25T01:53:48;6.00;99.90
15700;DHT22;7950;42.744;23.174;2022-09-25T01:56:22;6.00;99.90
15700;DHT22;7950;42.744;23.174;2022-09-25T01:59:02;6.00;99.90
15700;DHT22;7950;42.744;23.174;2022-09-25T02:01:36;6.00;99.90
15700;DHT22;7950;42.744;23.174;2022-09-25T02:04:09;5.90;99.90
15700;DHT22;7950;42.744;23.174;2022-09-25T02:06:42;5.80;99.90
15700;DHT22;7950;42.744;23.174;2022-09-25T02:09:15;5.90;99.90
15700;DHT22;7950;42.744;23.174;2022-09-25T02:11:50;5.90;99.90
15700;DHT22;7950;42.744;23.174;2022-09-25T02:14:51;5.80;99.90
15700;DHT22;7950;42.744;23.174;2022-09-25T02:17:28;5.70;99.90
15700;DHT22;7950;42.744;23.174;2022-09-25T02:20:15;5.70;99.90
15700;DHT22;7950;42.744;23.174;2022-09-25T02:23:07;5.70;99.90
15700;DHT22;7950;42.744;23.174;2022-09-25T02:25:38;5.60;99.90
15700;DHT22;7950;42.744;23.174;2022-09-25T02:28:07;5.60;99.90
15700;DHT22;7950;42.744;23.174;2022-09-25T02:30:36;5.60;99.90
15700;DHT22;7950;42.744;23.174;2022-09-25T02:33:09;5.70;99.90
15700;DHT22;7950;42.744;23.174;2022-09-25T02:35:38;5.60;99.90
15700;DHT22;7950;42.744;23.174;2022-09-25T02:38:07;5.60;99.90
15700;DHT22;7950;42.744;23.174;2022-09-25T02:40:42;5.60;99.90
15700;DHT22;7950;42.744;23.174;2022-09-25T02:43:39;5.70;99.90
15700;DHT22;7950;42.744;23.174;2022-09-25T02:46:14;5.70;99.90
15700;DHT22;7950;42.744;23.174;2022-09-25T02:48:51;5.70;99.90
15700;DHT22;7950;42.744;23.174;2022-09-25T02:51:27;5.70;99.90
15700;DHT22;7950;42.744;23.174;2022-09-25T02:54:04;5.80;99.90
15700;DHT22;7950;42.744;23.174;2022-09-25T02:56:45;5.80;99.90
15700;DHT22;7950;42.744;23.174;2022-09-25T02:59:18;5.80;99.90
15700;DHT22;7950;42.744;23.174;2022-09-25T03:01:49;5.80;99.90
15700;DHT22;7950;42.744;23.174;2022-09-25T03:04:21;5.80;99.90
15700;DHT22;7950;42.744;23.174;2022-09-25T03:06:50;5.90;99.90
15700;DHT22;7950;42.744;23.174;2022-09-25T03:09:21;5.90;99.90
15700;DHT22;7950;42.744;23.174;2022-09-25T03:11:49;6.00;99.90
15700;DHT22;7950;42.744;23.174;2022-09-25T03:14:18;6.00;99.90
15700;DHT22;7950;42.744;23.174;2022-09-25T03:16:49;6.10;99.90
15700;DHT22;7950;42.744;23.174;2022-09-25T03:19:19;6.10;99.90
15700;DHT22;7950;42.744;23.174;2022-09-25T03:21:48;6.10;99.90
15700;DHT22;7950;42.744;23.174;2022-09-25T03:24:17;6.10;99.90
15700;DHT22;7950;42.744;23.174;2022-09-25T03:26:45;6.10;99.90
15700;DHT22;7950;42.744;23.174;2022-09-25T03:29:14;6.20;99.90
15700;DHT22;7950;42.744;23.174;2022-09-25T03:31:43;6.20;99.90
15700;DHT22;7950;42.744;23.174;2022-09-25T03:34:13;6.20;99.90
15700;DHT22;7950;42.744;23.174;2022-09-25T03:36:42;6.20;99.90
15700;DHT22;7950;42.744;23.174;2022-09-25T03:39:31;6.20;99.90
15700;DHT22;7950;42.744;23.174;2022-09-25T03:41:59;6.10;99.90
15700;DHT22;7950;42.744;23.174;2022-09-25T03:44:27;6.10;99.90
15700;DHT22;7950;42.744;23.174;2022-09-25T03:46:56;6.10;99.90
15700;DHT22;7950;42.744;23.174;2022-09-25T03:49:24;6.00;99.90
15700;DHT22;7950;42.744;23.174;2022-09-25T03:51:54;6.00;99.90
15700;DHT22;7950;42.744;23.174;2022-09-25T03:54:22;6.00;99.90
15700;DHT22;7950;42.744;23.174;2022-09-25T03:56:50;6.00;99.90
15700;DHT22;7950;42.744;23.174;2022-09-25T03:59:19;5.90;99.90
15700;DHT22;7950;42.744;23.174;2022-09-25T04:01:47;5.90;99.90
15700;DHT22;7950;42.744;23.174;2022-09-25T04:04:15;5.90;99.90
15700;DHT22;7950;42.744;23.174;2022-09-25T04:06:43;5.80;99.90
15700;DHT22;7950;42.744;23.174;2022-09-25T04:09:13;5.80;99.90
15700;DHT22;7950;42.744;23.174;2022-09-25T04:11:41;5.80;99.90
15700;DHT22;7950;42.744;23.174;2022-09-25T04:14:13;5.80;99.90
15700;DHT22;7950;42.744;23.174;2022-09-25T04:16:42;5.70;99.90
15700;DHT22;7950;42.744;23.174;2022-09-25T04:19:11;5.70;99.90
15700;DHT22;7950;42.744;23.174;2022-09-25T04:21:41;5.60;99.90
15700;DHT22;7950;42.744;23.174;2022-09-25T04:24:10;5.60;99.90
15700;DHT22;7950;42.744;23.174;2022-09-25T04:26:57;5.60;99.90
15700;DHT22;7950;42.744;23.174;2022-09-25T04:29:51;5.60;99.90
15700;DHT22;7950;42.744;23.174;2022-09-25T04:32:19;5.60;99.90
15700;DHT22;7950;42.744;23.174;2022-09-25T04:35:05;5.60;99.90
15700;DHT22;7950;42.744;23.174;2022-09-25T04:37:33;5.60;99.90
15700;DHT22;7950;42.744;23.174;2022-09-25T04:40:02;5.60;99.90
15700;DHT22;7950;42.744;23.174;2022-09-25T04:42:32;5.70;99.90
15700;DHT22;7950;42.744;23.174;2022-09-25T04:45:00;5.60;99.90
15700;DHT22;7950;42.744;23.174;2022-09-25T04:47:29;5.60;99.90
15700;DHT22;7950;42.744;23.174;2022-09-25T04:49:57;5.60;99.90
15700;DHT22;7950;42.744;23.174;2022-09-25T04:52:25;5.70;99.90
15700;DHT22;7950;42.744;23.174;2022-09-25T04:54:54;5.70;99.90
15700;DHT22;7950;42.744;23.174;2022-09-25T04:57:22;5.80;99.90
15700;DHT22;7950;42.744;23.174;2022-09-25T05:00:14;5.80;99.90
15700;DHT22;7950;42.744;23.174;2022-09-25T05:02:44;5.80;99.90
15700;DHT22;7950;42.744;23.174;2022-09-25T05:05:28;5.90;99.90
15700;DHT22;7950;42.744;23.174;2022-09-25T05:07:59;6.00;99.90
15700;DHT22;7950;42.744;23.174;2022-09-25T05:10:28;6.20;99.90
15700;DHT22;7950;42.744;23.174;2022-09-25T05:12:58;6.40;99.90
15700;DHT22;7950;42.744;23.174;2022-09-25T05:15:29;6.60;99.90
15700;DHT22;7950;42.744;23.174;2022-09-25T05:18:03;6.80;99.90
15700;DHT22;7950;42.744;23.174;2022-09-25T05:20:34;7.00;99.90
15700;DHT22;7950;42.744;23.174;2022-09-25T05:23:02;7.30;99.90
15700;DHT22;7950;42.744;23.174;2022-09-25T05:25:31;7.50;99.90
15700;DHT22;7950;42.744;23.174;2022-09-25T05:28:00;7.80;99.90
15700;DHT22;7950;42.744;23.174;2022-09-25T05:30:31;8.10;99.90
15700;DHT22;7950;42.744;23.174;2022-09-25T05:33:00;8.30;99.90
15700;DHT22;7950;42.744;23.174;2022-09-25T05:35:30;8.60;99.90
15700;DHT22;7950;42.744;23.174;2022-09-25T05:38:24;8.90;99.90
15700;DHT22;7950;42.744;23.174;2022-09-25T05:40:52;9.40;99.90
15700;DHT22;7950;42.744;23.174;2022-09-25T05:43:21;9.60;99.90
15700;DHT22;7950;42.744;23.174;2022-09-25T05:45:55;9.80;99.90
15700;DHT22;7950;42.744;23.174;2022-09-25T05:48:23;10.00;99.90
15700;DHT22;7950;42.744;23.174;2022-09-25T05:50:52;10.20;99.90
15700;DHT22;7950;42.744;23.174;2022-09-25T05:53:20;10.50;99.90
15700;DHT22;7950;42.744;23.174;2022-09-25T05:55:49;10.70;99.90
15700;DHT22;7950;42.744;23.174;2022-09-25T05:58:18;10.90;99.90
15700;DHT22;7950;42.744;23.174;2022-09-25T06:00:47;10.90;99.90
15700;DHT22;7950;42.744;23.174;2022-09-25T06:03:17;10.90;99.90
15700;DHT22;7950;42.744;23.174;2022-09-25T06:05:46;11.00;99.90
15700;DHT22;7950;42.744;23.174;2022-09-25T06:08:15;11.20;99.90
15700;DHT22;7950;42.744;23.174;2022-09-25T06:10:43;11.40;99.90
15700;DHT22;7950;42.744;23.174;2022-09-25T06:13:36;11.70;99.90
15700;DHT22;7950;42.744;23.174;2022-09-25T06:16:12;12.10;99.90
15700;DHT22;7950;42.744;23.174;2022-09-25T06:18:42;12.30;99.90
15700;DHT22;7950;42.744;23.174;2022-09-25T06:21:10;12.40;99.90
15700;DHT22;7950;42.744;23.174;2022-09-25T06:23:40;12.60;99.90
15700;DHT22;7950;42.744;23.174;2022-09-25T06:26:10;12.90;99.90
15700;DHT22;7950;42.744;23.174;2022-09-25T06:28:39;13.10;99.90
15700;DHT22;7950;42.744;23.174;2022-09-25T06:31:07;13.10;99.90
15700;DHT22;7950;42.744;23.174;2022-09-25T06:33:36;13.20;99.90
15700;DHT22;7950;42.744;23.174;2022-09-25T06:36:05;13.30;99.90
15700;DHT22;7950;42.744;23.174;2022-09-25T06:38:34;13.50;99.90
15700;DHT22;7950;42.744;23.174;2022-09-25T06:41:02;13.60;99.90
15700;DHT22;7950;42.744;23.174;2022-09-25T06:43:31;13.70;99.90
15700;DHT22;7950;42.744;23.174;2022-09-25T06:45:59;13.70;99.90
15700;DHT22;7950;42.744;23.174;2022-09-25T06:48:29;13.90;99.90
15700;DHT22;7950;42.744;23.174;2022-09-25T06:50:59;14.20;99.90
15700;DHT22;7950;42.744;23.174;2022-09-25T06:53:29;14.50;99.90
15700;DHT22;7950;42.744;23.174;2022-09-25T06:55:58;14.60;99.90
15700;DHT22;7950;42.744;23.174;2022-09-25T06:58:27;14.60;99.90
15700;DHT22;7950;42.744;23.174;2022-09-25T07:00:57;14.50;99.90
15700;DHT22;7950;42.744;23.174;2022-09-25T07:03:26;14.40;99.90
15700;DHT22;7950;42.744;23.174;2022-09-25T07:06:13;14.40;99.90
15700;DHT22;7950;42.744;23.174;2022-09-25T07:08:43;14.40;99.90
15700;DHT22;7950;42.744;23.174;2022-09-25T07:11:16;14.40;99.90
15700;DHT22;7950;42.744;23.174;2022-09-25T07:13:44;14.30;99.90
15700;DHT22;7950;42.744;23.174;2022-09-25T07:16:14;14.30;99.90
15700;DHT22;7950;42.744;23.174;2022-09-25T07:18:43;14.30;99.90
15700;DHT22;7950;42.744;23.174;2022-09-25T07:21:13;14.30;99.90
15700;DHT22;7950;42.744;23.174;2022-09-25T07:23:45;14.30;99.90
15700;DHT22;7950;42.744;23.174;2022-09-25T07:26:17;14.60;99.90
15700;DHT22;7950;42.744;23.174;2022-09-25T07:28:48;14.90;99.90
15700;DHT22;7950;42.744;23.174;2022-09-25T07:31:22;15.20;99.90
15700;DHT22;7950;42.744;23.174;2022-09-25T07:33:52;15.40;99.90
15700;DHT22;7950;42.744;23.174;2022-09-25T07:36:20;15.40;99.90
15700;DHT22;7950;42.744;23.174;2022-09-25T07:38:50;15.50;99.90
15700;DHT22;7950;42.744;23.174;2022-09-25T07:41:44;15.70;99.90
15700;DHT22;7950;42.744;23.174;2022-09-25T07:44:12;16.00;99.90
15700;DHT22;7950;42.744;23.174;2022-09-25T07:46:55;16.20;99.90
15700;DHT22;7950;42.744;23.174;2022-09-25T07:49:24;16.50;99.90
15700;DHT22;7950;42.744;23.174;2022-09-25T07:51:52;16.70;99.70
15700;DHT22;7950;42.744;23.174;2022-09-25T07:54:22;16.90;99.90
15700;DHT22;7950;42.744;23.174;2022-09-25T07:56:50;17.20;97.10
15700;DHT22;7950;42.744;23.174;2022-09-25T07:59:19;17.40;96.90
15700;DHT22;7950;42.744;23.174;2022-09-25T08:01:47;17.50;95.50
15700;DHT22;7950;42.744;23.174;2022-09-25T08:04:20;17.60;95.60
15700;DHT22;7950;42.744;23.174;2022-09-25T08:06:48;17.80;94.60
15700;DHT22;7950;42.744;23.174;2022-09-25T08:09:16;17.90;94.00
15700;DHT22;7950;42.744;23.174;2022-09-25T08:11:46;18.00;92.10
15700;DHT22;7950;42.744;23.174;2022-09-25T08:14:14;17.90;91.90
15700;DHT22;7950;42.744;23.174;2022-09-25T08:16:47;17.90;91.90
15700;DHT22;7950;42.744;23.174;2022-09-25T08:19:15;17.90;91.60
15700;DHT22;7950;42.744;23.174;2022-09-25T08:21:44;17.90;92.90
15700;DHT22;7950;42.744;23.174;2022-09-25T08:24:12;18.00;93.10
15700;DHT22;7950;42.744;23.174;2022-09-25T08:26:40;18.10;92.30
15700;DHT22;7950;42.744;23.174;2022-09-25T08:29:10;18.10;92.80
15700;DHT22;7950;42.744;23.174;2022-09-25T08:31:39;18.10;92.00
15700;DHT22;7950;42.744;23.174;2022-09-25T08:34:07;18.20;91.00
15700;DHT22;7950;42.744;23.174;2022-09-25T08:36:56;18.20;90.80
15700;DHT22;7950;42.744;23.174;2022-09-25T08:39:24;18.20;90.00
15700;DHT22;7950;42.744;23.174;2022-09-25T08:42:18;18.20;90.00
15700;DHT22;7950;42.744;23.174;2022-09-25T08:44:52;18.20;89.80
15700;DHT22;7950;42.744;23.174;2022-09-25T08:47:49;18.40;89.20
15700;DHT22;7950;42.744;23.174;2022-09-25T08:50:36;18.40;87.90
15700;DHT22;7950;42.744;23.174;2022-09-25T08:53:07;18.50;89.50
15700;DHT22;7950;42.744;23.174;2022-09-25T08:55:39;18.70;88.40
15700;DHT22;7950;42.744;23.174;2022-09-25T08:58:27;18.80;86.00
15700;DHT22;7950;42.744;23.174;2022-09-25T09:01:00;18.80;85.70
15700;DHT22;7950;42.744;23.174;2022-09-25T09:03:32;18.90;88.20
15700;DHT22;7950;42.744;23.174;2022-09-25T09:06:02;19.00;84.70
15700;DHT22;7950;42.744;23.174;2022-09-25T09:08:35;19.00;83.20
15700;DHT22;7950;42.744;23.174;2022-09-25T09:11:25;18.90;83.40
15700;DHT22;7950;42.744;23.174;2022-09-25T09:13:59;18.90;84.40
15700;DHT22;7950;42.744;23.174;2022-09-25T09:16:36;19.00;84.20
15700;DHT22;7950;42.744;23.174;2022-09-25T09:19:08;19.30;83.90
15700;DHT22;7950;42.744;23.174;2022-09-25T09:21:38;19.30;81.30
15700;DHT22;7950;42.744;23.174;2022-09-25T09:24:14;19.30;80.80
15700;DHT22;7950;42.744;23.174;2022-09-25T09:26:59;19.40;82.10
15700;DHT22;7950;42.744;23.174;2022-09-25T09:29:50;19.60;81.60
15700;DHT22;7950;42.744;23.174;2022-09-25T09:33:16;19.80;80.30
15700;DHT22;7950;42.744;23.174;2022-09-25T09:35:56;19.90;79.20
15700;DHT22;7950;42.744;23.174;2022-09-25T09:38:35;19.90;78.40
15700;DHT22;7950;42.744;23.174;2022-09-25T09:44:34;19.90;78.70
15700;DHT22;7950;42.744;23.174;2022-09-25T09:47:14;20.00;76.50
15700;DHT22;7950;42.744;23.174;2022-09-25T09:49:52;20.00;75.70
15700;DHT22;7950;42.744;23.174;2022-09-25T09:52:27;20.20;75.40
15700;DHT22;7950;42.744;23.174;2022-09-25T09:55:00;20.20;73.70
15700;DHT22;7950;42.744;23.174;2022-09-25T09:57:55;20.20;75.30
15700;DHT22;7950;42.744;23.174;2022-09-25T10:00:24;20.40;74.50
15700;DHT22;7950;42.744;23.174;2022-09-25T10:02:57;20.60;72.70
15700;DHT22;7950;42.744;23.174;2022-09-25T10:05:31;20.70;74.00
15700;DHT22;7950;42.744;23.174;2022-09-25T10:08:00;20.90;75.00
15700;DHT22;7950;42.744;23.174;2022-09-25T10:10:34;21.10;72.20
15700;DHT22;7950;42.744;23.174;2022-09-25T10:13:07;21.30;71.40
15700;DHT22;7950;42.744;23.174;2022-09-25T10:15:41;21.50;70.80
15700;DHT22;7950;42.744;23.174;2022-09-25T10:18:12;21.70;66.70
15700;DHT22;7950;42.744;23.174;2022-09-25T10:20:45;21.80;64.80
15700;DHT22;7950;42.744;23.174;2022-09-25T10:23:23;21.80;64.70
15700;DHT22;7950;42.744;23.174;2022-09-25T10:25:55;21.70;64.00
15700;DHT22;7950;42.744;23.174;2022-09-25T10:28:29;21.50;63.90
15700;DHT22;7950;42.744;23.174;2022-09-25T10:30:59;21.50;64.70
15700;DHT22;7950;42.744;23.174;2022-09-25T10:33:29;21.50;65.40
15700;DHT22;7950;42.744;23.174;2022-09-25T10:36:01;21.60;64.90
15700;DHT22;7950;42.744;23.174;2022-09-25T10:38:33;21.60;64.20
15700;DHT22;7950;42.744;23.174;2022-09-25T10:41:06;21.60;63.30
15700;DHT22;7950;42.744;23.174;2022-09-25T10:43:49;21.60;63.40
15700;DHT22;7950;42.744;23.174;2022-09-25T10:46:26;21.60;63.40
15700;DHT22;7950;42.744;23.174;2022-09-25T10:49:22;21.60;62.00
15700;DHT22;7950;42.744;23.174;2022-09-25T10:52:11;21.60;61.60
15700;DHT22;7950;42.744;23.174;2022-09-25T10:54:40;21.50;62.50
15700;DHT22;7950;42.744;23.174;2022-09-25T10:57:19;21.40;63.50
15700;DHT22;7950;42.744;23.174;2022-09-25T10:59:52;21.50;62.00
15700;DHT22;7950;42.744;23.174;2022-09-25T11:02:32;21.50;63.60
15700;DHT22;7950;42.744;23.174;2022-09-25T11:05:03;21.60;62.80
15700;DHT22;7950;42.744;23.174;2022-09-25T11:07:34;21.70;61.60
15700;DHT22;7950;42.744;23.174;2022-09-25T11:10:28;21.90;62.10
15700;DHT22;7950;42.744;23.174;2022-09-25T11:12:58;22.00;61.20
15700;DHT22;7950;42.744;23.174;2022-09-25T11:15:28;22.10;61.30
15700;DHT22;7950;42.744;23.174;2022-09-25T11:17:56;22.30;60.50
15700;DHT22;7950;42.744;23.174;2022-09-25T11:20:27;22.40;61.00
15700;DHT22;7950;42.744;23.174;2022-09-25T11:23:14;22.40;57.90
15700;DHT22;7950;42.744;23.174;2022-09-25T11:25:45;22.30;57.40
15700;DHT22;7950;42.744;23.174;2022-09-25T11:28:24;22.30;56.00
15700;DHT22;7950;42.744;23.174;2022-09-25T11:30:59;22.40;56.10
15700;DHT22;7950;42.744;23.174;2022-09-25T11:33:38;22.60;56.50
15700;DHT22;7950;42.744;23.174;2022-09-25T11:36:14;22.70;55.50
15700;DHT22;7950;42.744;23.174;2022-09-25T11:38:46;22.60;55.60
15700;DHT22;7950;42.744;23.174;2022-09-25T11:41:37;22.60;56.80
15700;DHT22;7950;42.744;23.174;2022-09-25T11:44:22;22.50;57.50
15700;DHT22;7950;42.744;23.174;2022-09-25T11:46:58;22.50;57.50
15700;DHT22;7950;42.744;23.174;2022-09-25T11:49:30;22.50;57.90
15700;DHT22;7950;42.744;23.174;2022-09-25T11:52:16;22.60;59.00
15700;DHT22;7950;42.744;23.174;2022-09-25T11:55:01;22.70;59.20
15700;DHT22;7950;42.744;23.174;2022-09-25T11:57:35;22.80;59.80
15700;DHT22;7950;42.744;23.174;2022-09-25T12:00:08;22.90;59.20
15700;DHT22;7950;42.744;23.174;2022-09-25T12:02:58;22.90;59.40
15700;DHT22;7950;42.744;23.174;2022-09-25T12:05:54;23.00;58.40
15700;DHT22;7950;42.744;23.174;2022-09-25T12:08:40;23.10;58.10
15700;DHT22;7950;42.744;23.174;2022-09-25T12:11:22;23.10;58.20
15700;DHT22;7950;42.744;23.174;2022-09-25T12:13:58;23.30;58.00
15700;DHT22;7950;42.744;23.174;2022-09-25T12:16:37;23.40;57.50
15700;DHT22;7950;42.744;23.174;2022-09-25T12:19:29;23.30;57.50
15700;DHT22;7950;42.744;23.174;2022-09-25T12:22:11;23.30;57.10
15700;DHT22;7950;42.744;23.174;2022-09-25T12:24:57;23.20;57.20
15700;DHT22;7950;42.744;23.174;2022-09-25T12:27:38;23.30;58.00
15700;DHT22;7950;42.744;23.174;2022-09-25T12:30:15;23.40;56.30
15700;DHT22;7950;42.744;23.174;2022-09-25T12:33:05;23.50;56.90
15700;DHT22;7950;42.744;23.174;2022-09-25T12:35:49;23.50;55.50
15700;DHT22;7950;42.744;23.174;2022-09-25T12:38:26;23.60;55.20
15700;DHT22;7950;42.744;23.174;2022-09-25T12:41:02;23.50;54.90
15700;DHT22;7950;42.744;23.174;2022-09-25T12:43:40;23.60;55.10
15700;DHT22;7950;42.744;23.174;2022-09-25T12:46:21;23.60;53.00
15700;DHT22;7950;42.744;23.174;2022-09-25T12:48:56;23.70;52.20
15700;DHT22;7950;42.744;23.174;2022-09-25T12:51:32;23.60;51.60
15700;DHT22;7950;42.744;23.174;2022-09-25T12:54:10;23.60;52.30
15700;DHT22;7950;42.744;23.174;2022-09-25T12:56:45;23.60;54.10
15700;DHT22;7950;42.744;23.174;2022-09-25T12:59:21;23.80;53.20
15700;DHT22;7950;42.744;23.174;2022-09-25T13:01:57;23.80;52.40
15700;DHT22;7950;42.744;23.174;2022-09-25T13:04:39;23.70;51.30
15700;DHT22;7950;42.744;23.174;2022-09-25T13:07:16;23.70;51.70
15700;DHT22;7950;42.744;23.174;2022-09-25T13:09:47;23.70;52.00
15700;DHT22;7950;42.744;23.174;2022-09-25T13:12:41;23.80;51.60
15700;DHT22;7950;42.744;23.174;2022-09-25T13:15:37;23.80;49.20
15700;DHT22;7950;42.744;23.174;2022-09-25T13:18:18;23.80;47.90
15700;DHT22;7950;42.744;23.174;2022-09-25T13:20:52;23.80;48.10
15700;DHT22;7950;42.744;23.174;2022-09-25T13:23:27;23.90;48.90
15700;DHT22;7950;42.744;23.174;2022-09-25T13:25:59;23.90;48.80
15700;DHT22;7950;42.744;23.174;2022-09-25T13:28:31;23.80;48.40
15700;DHT22;7950;42.744;23.174;2022-09-25T13:31:08;23.70;47.40
15700;DHT22;7950;42.744;23.174;2022-09-25T13:33:47;23.60;49.30
15700;DHT22;7950;42.744;23.174;2022-09-25T13:36:30;23.60;47.70
15700;DHT22;7950;42.744;23.174;2022-09-25T13:39:25;23.50;47.10
15700;DHT22;7950;42.744;23.174;2022-09-25T13:42:19;23.50;48.00
15700;DHT22;7950;42.744;23.174;2022-09-25T13:44:50;23.50;47.80
15700;DHT22;7950;42.744;23.174;2022-09-25T13:47:59;23.40;47.50
15700;DHT22;7950;42.744;23.174;2022-09-25T13:50:38;23.30;47.90
15700;DHT22;7950;42.744;23.174;2022-09-25T13:53:24;23.20;48.20
15700;DHT22;7950;42.744;23.174;2022-09-25T13:59:35;23.40;48.20
15700;DHT22;7950;42.744;23.174;2022-09-25T14:02:37;23.50;49.00
15700;DHT22;7950;42.744;23.174;2022-09-25T14:05:13;23.60;48.20
15700;DHT22;7950;42.744;23.174;2022-09-25T14:07:44;23.60;47.60
15700;DHT22;7950;42.744;23.174;2022-09-25T14:10:15;23.50;48.60
15700;DHT22;7950;42.744;23.174;2022-09-25T14:12:46;23.40;48.40
15700;DHT22;7950;42.744;23.174;2022-09-25T14:15:22;23.30;47.90
15700;DHT22;7950;42.744;23.174;2022-09-25T14:17:54;23.20;47.80
15700;DHT22;7950;42.744;23.174;2022-09-25T14:20:30;23.10;46.90
15700;DHT22;7950;42.744;23.174;2022-09-25T14:23:01;22.90;47.10
15700;DHT22;7950;42.744;23.174;2022-09-25T14:25:32;22.80;47.90
15700;DHT22;7950;42.744;23.174;2022-09-25T14:28:03;22.70;48.70
15700;DHT22;7950;42.744;23.174;2022-09-25T14:30:51;22.80;48.60
15700;DHT22;7950;42.744;23.174;2022-09-25T14:33:31;22.90;48.60
15700;DHT22;7950;42.744;23.174;2022-09-25T14:36:11;22.90;48.50
15700;DHT22;7950;42.744;23.174;2022-09-25T14:39:05;22.90;49.10
15700;DHT22;7950;42.744;23.174;2022-09-25T14:41:50;23.00;48.80
15700;DHT22;7950;42.744;23.174;2022-09-25T14:47:33;23.00;48.80
15700;DHT22;7950;42.744;23.174;2022-09-25T14:50:03;23.00;49.20
15700;DHT22;7950;42.744;23.174;2022-09-25T14:52:35;23.00;48.20
15700;DHT22;7950;42.744;23.174;2022-09-25T14:55:04;22.90;48.70
15700;DHT22;7950;42.744;23.174;2022-09-25T14:57:35;22.90;49.10
15700;DHT22;7950;42.744;23.174;2022-09-25T15:00:05;22.80;49.30
15700;DHT22;7950;42.744;23.174;2022-09-25T15:02:36;22.80;49.60
15700;DHT22;7950;42.744;23.174;2022-09-25T15:05:16;22.70;49.50
15700;DHT22;7950;42.744;23.174;2022-09-25T15:07:46;22.60;50.60
15700;DHT22;7950;42.744;23.174;2022-09-25T15:10:25;22.60;50.70
15700;DHT22;7950;42.744;23.174;2022-09-25T15:13:04;22.60;50.70
15700;DHT22;7950;42.744;23.174;2022-09-25T15:15:33;22.50;51.50
15700;DHT22;7950;42.744;23.174;2022-09-25T15:18:02;22.50;51.30
15700;DHT22;7950;42.744;23.174;2022-09-25T15:20:31;22.50;50.50
15700;DHT22;7950;42.744;23.174;2022-09-25T15:23:04;22.40;50.50
15700;DHT22;7950;42.744;23.174;2022-09-25T15:25:36;22.30;51.10
15700;DHT22;7950;42.744;23.174;2022-09-25T15:28:05;22.20;52.20
15700;DHT22;7950;42.744;23.174;2022-09-25T15:30:35;22.10;51.70
15700;DHT22;7950;42.744;23.174;2022-09-25T15:33:10;22.00;51.30
15700;DHT22;7950;42.744;23.174;2022-09-25T15:35:53;21.80;50.50
15700;DHT22;7950;42.744;23.174;2022-09-25T15:38:30;21.70;50.40
15700;DHT22;7950;42.744;23.174;2022-09-25T15:40:58;21.50;50.30
15700;DHT22;7950;42.744;23.174;2022-09-25T15:43:29;21.40;50.70
15700;DHT22;7950;42.744;23.174;2022-09-25T15:46:13;21.30;51.10
15700;DHT22;7950;42.744;23.174;2022-09-25T15:48:51;21.10;51.90
15700;DHT22;7950;42.744;23.174;2022-09-25T15:51:22;21.00;52.20
15700;DHT22;7950;42.744;23.174;2022-09-25T15:53:54;20.90;53.30
15700;DHT22;7950;42.744;23.174;2022-09-25T15:56:26;20.70;53.90
15700;DHT22;7950;42.744;23.174;2022-09-25T15:58:57;20.60;54.30
15700;DHT22;7950;42.744;23.174;2022-09-25T16:01:27;20.40;54.80
15700;DHT22;7950;42.744;23.174;2022-09-25T16:04:17;20.20;56.00
15700;DHT22;7950;42.744;23.174;2022-09-25T16:07:26;20.00;56.30
15700;DHT22;7950;42.744;23.174;2022-09-25T16:09:57;19.70;57.10
15700;DHT22;7950;42.744;23.174;2022-09-25T16:12:29;19.60;58.30
15700;DHT22;7950;42.744;23.174;2022-09-25T16:14:57;19.40;59.20
15700;DHT22;7950;42.744;23.174;2022-09-25T16:17:31;19.20;60.40
15700;DHT22;7950;42.744;23.174;2022-09-25T16:20:03;19.10;60.10
15700;DHT22;7950;42.744;23.174;2022-09-25T16:22:44;18.90;60.10
15700;DHT22;7950;42.744;23.174;2022-09-25T16:25:17;18.60;61.40
15700;DHT22;7950;42.744;23.174;2022-09-25T16:27:47;18.50;62.10
15700;DHT22;7950;42.744;23.174;2022-09-25T16:30:30;18.30;63.00
15700;DHT22;7950;42.744;23.174;2022-09-25T16:33:03;18.20;63.90
15700;DHT22;7950;42.744;23.174;2022-09-25T16:35:35;18.00;64.50